createdAt,value
2022-10-05T00:01:57.068Z,101842.63
2022-10-05T00:04:35.411Z,101839.03
2022-10-05T00:07:25.119Z,101841.41
2022-10-05T00:10:04.508Z,101842.69
2022-10-05T00:12:43.960Z,101848.66
2022-10-05T00:15:15.344Z,101852.34
2022-10-05T00:17:53.231Z,101849.81
2022-10-05T00:20:32.167Z,101857.91
2022-10-05T00:23:04.347Z,101862.47
2022-10-05T00:25:44.633Z,101857.19
2022-10-05T00:28:33.384Z,101864.13
2022-10-05T00:31:25.149Z,101860.28
2022-10-05T00:33:56.606Z,101855.88
2022-10-05T00:36:33.582Z,101855.44
2022-10-05T00:39:13.210Z,101857.44
2022-10-05T00:41:51.648Z,101848.66
2022-10-05T00:44:34.047Z,101855.06
2022-10-05T00:47:12.457Z,101851.91
2022-10-05T00:49:47.682Z,101847.00
2022-10-05T00:52:37.774Z,101850.66
2022-10-05T00:55:36.601Z,101850.72
2022-10-05T00:58:49.645Z,101847.44
2022-10-05T01:01:33.184Z,101845.41
2022-10-05T01:04:21.390Z,101843.84
2022-10-05T01:07:13.718Z,101849.06
2022-10-05T01:10:17.028Z,101847.28
2022-10-05T01:13:08.382Z,101840.97
2022-10-05T01:15:54.548Z,101847.69
2022-10-05T01:18:33.177Z,101845.31
2022-10-05T01:21:17.133Z,101848.25
2022-10-05T01:24:13.701Z,101846.75
2022-10-05T01:27:40.338Z,101843.50
2022-10-05T01:30:26.999Z,101843.56
2022-10-05T01:33:09.472Z,101841.16
2022-10-05T01:36:14.519Z,101844.53
2022-10-05T01:38:59.522Z,101844.19
2022-10-05T01:41:35.560Z,101838.50
2022-10-05T01:44:27.133Z,101846.28
2022-10-05T01:47:38.462Z,101847.06
2022-10-05T01:50:26.426Z,101849.72
2022-10-05T01:53:08.828Z,101848.97
2022-10-05T01:55:43.106Z,101850.13
2022-10-05T01:58:34.415Z,101846.06
2022-10-05T02:01:30.761Z,101845.41
2022-10-05T02:05:01.510Z,101851.22
2022-10-05T02:08:04.902Z,101849.75
2022-10-05T02:10:55.221Z,101849.84
2022-10-05T02:14:04.196Z,101850.53
2022-10-05T02:16:50.572Z,101848.34
2022-10-05T02:19:31.478Z,101851.03
2022-10-05T02:22:19.462Z,101844.72
2022-10-05T02:25:02.010Z,101848.81
2022-10-05T02:28:13.107Z,101836.59
2022-10-05T02:31:03.661Z,101833.66
2022-10-05T02:33:39.862Z,101828.47
2022-10-05T02:36:38.254Z,101825.38
2022-10-05T02:39:34.583Z,101828.41
2022-10-05T02:42:24.848Z,101821.13
2022-10-05T02:45:23.474Z,101826.75
2022-10-05T02:48:14.241Z,101815.00
2022-10-05T02:50:53.675Z,101826.25
2022-10-05T02:53:28.690Z,101822.59
2022-10-05T02:56:22.409Z,101828.81
2022-10-05T02:59:08.096Z,101823.03
2022-10-05T03:01:52.780Z,101828.19
2022-10-05T03:04:40.719Z,101823.34
2022-10-05T03:07:36.912Z,101824.56
2022-10-05T03:10:30.931Z,101816.81
2022-10-05T03:13:35.594Z,101815.91
2022-10-05T03:16:28.981Z,101821.28
2022-10-05T03:19:33.279Z,101817.19
2022-10-05T03:22:41.043Z,101821.59
2022-10-05T03:25:35.990Z,101831.28
2022-10-05T03:28:42.602Z,101830.78
2022-10-05T03:31:16.066Z,101823.94
2022-10-05T03:34:11.022Z,101819.91
2022-10-05T03:37:00.647Z,101828.84
2022-10-05T03:39:49.787Z,101833.63
2022-10-05T03:42:32.508Z,101831.22
2022-10-05T03:45:16.559Z,101839.28
2022-10-05T03:48:01.258Z,101848.72
2022-10-05T03:50:53.556Z,101846.66
2022-10-05T03:53:35.336Z,101841.00
2022-10-05T03:56:38.679Z,101848.94
2022-10-05T03:59:33.019Z,101849.03
2022-10-05T04:02:27.217Z,101850.25
2022-10-05T04:05:16.017Z,101853.34
2022-10-05T04:08:32.779Z,101848.44
2022-10-05T04:11:20.591Z,101851.44
2022-10-05T04:14:05.597Z,101836.50
2022-10-05T04:17:12.410Z,101839.41
2022-10-05T04:20:01.593Z,101839.34
2022-10-05T04:22:46.489Z,101841.41
2022-10-05T04:25:25.219Z,101841.84
2022-10-05T04:28:12.093Z,101837.81
2022-10-05T04:30:53.749Z,101841.00
2022-10-05T04:33:26.673Z,101841.19
2022-10-05T04:36:05.706Z,101846.09
2022-10-05T04:38:38.661Z,101850.25
2022-10-05T04:41:44.932Z,101844.31
2022-10-05T04:44:50.448Z,101847.06
2022-10-05T04:48:04.186Z,101838.16
2022-10-05T04:51:01.502Z,101846.19
2022-10-05T04:54:06.472Z,101842.56
2022-10-05T04:56:50.671Z,101842.41
2022-10-05T04:59:59.052Z,101852.63
2022-10-05T05:03:00.435Z,101842.56
2022-10-05T05:06:05.091Z,101851.72
2022-10-05T05:09:04.236Z,101860.56
2022-10-05T05:11:58.397Z,101862.22
2022-10-05T05:14:58.613Z,101858.59
2022-10-05T05:17:56.581Z,101856.94
2022-10-05T05:20:42.455Z,101861.41
2022-10-05T05:23:30.326Z,101866.69
2022-10-05T05:26:09.376Z,101866.16
2022-10-05T05:28:53.333Z,101869.84
2022-10-05T05:31:56.687Z,101869.06
2022-10-05T05:34:45.317Z,101877.13
2022-10-05T05:37:37.583Z,101878.63
2022-10-05T05:40:18.989Z,101881.91
2022-10-05T05:42:55.939Z,101884.88
2022-10-05T05:45:35.228Z,101886.00
2022-10-05T05:48:38.055Z,101896.63
2022-10-05T05:51:26.869Z,101902.69
2022-10-05T05:54:21.233Z,101896.94
2022-10-05T05:57:00.583Z,101895.47
2022-10-05T05:59:44.738Z,101896.81
2022-10-05T06:02:26.026Z,101892.47
2022-10-05T06:05:32.543Z,101891.75
2022-10-05T06:08:28.874Z,101885.19
2022-10-05T06:11:20.905Z,101897.41
2022-10-05T06:13:58.368Z,101898.28
2022-10-05T06:16:48.175Z,101903.50
2022-10-05T06:19:29.840Z,101914.84
2022-10-05T06:22:22.326Z,101913.72
2022-10-05T06:25:03.433Z,101910.22
2022-10-05T06:27:38.765Z,101916.75
2022-10-05T06:30:22.922Z,101914.41
2022-10-05T06:33:36.546Z,101921.25
2022-10-05T06:36:23.529Z,101922.78
2022-10-05T06:39:09.458Z,101930.91
2022-10-05T06:42:04.073Z,101926.19
2022-10-05T06:45:38.755Z,101937.81
2022-10-05T06:49:17.179Z,101935.88
2022-10-05T06:52:03.802Z,101931.19
2022-10-05T06:54:45.642Z,101932.41
2022-10-05T06:57:36.886Z,101933.97
2022-10-05T07:00:24.905Z,101933.16
2022-10-05T07:03:22.281Z,101932.28
2022-10-05T07:06:05.538Z,101943.09
2022-10-05T07:09:02.702Z,101939.69
2022-10-05T07:11:50.222Z,101948.44
2022-10-05T07:14:43.448Z,101947.16
2022-10-05T07:17:39.505Z,101948.53
2022-10-05T07:20:25.342Z,101950.06
2022-10-05T07:23:21.617Z,101944.53
2022-10-05T07:26:03.397Z,101944.63
2022-10-05T07:28:50.602Z,101947.47
2022-10-05T07:31:56.972Z,101951.56
2022-10-05T07:34:29.627Z,101954.50
2022-10-05T07:37:28.545Z,101948.53
2022-10-05T07:40:18.123Z,101957.84
2022-10-05T07:43:10.671Z,101962.66
2022-10-05T07:46:21.549Z,101963.47
2022-10-05T07:49:34.665Z,101962.16
2022-10-05T07:52:40.093Z,101961.72
2022-10-05T07:55:27.792Z,101960.41
2022-10-05T07:58:23.313Z,101954.34
2022-10-05T08:01:08.896Z,101958.25
2022-10-05T08:03:49.999Z,101960.22
2022-10-05T08:06:47.861Z,101954.53
2022-10-05T08:09:45.638Z,101964.19
2022-10-05T08:12:31.967Z,101957.19
2022-10-05T08:15:28.079Z,101949.75
2022-10-05T08:18:22.009Z,101961.41
2022-10-05T08:21:00.326Z,101965.00
2022-10-05T08:23:39.164Z,101964.94
2022-10-05T08:26:59.604Z,101966.59
2022-10-05T08:29:45.640Z,101956.78
2022-10-05T08:32:31.232Z,101965.91
2022-10-05T08:35:19.425Z,101960.50
2022-10-05T08:37:50.434Z,101969.38
2022-10-05T08:40:21.983Z,101966.13
2022-10-05T08:43:27.508Z,101967.69
2022-10-05T08:46:17.811Z,101968.78
2022-10-05T08:48:57.249Z,101965.22
2022-10-05T08:51:51.677Z,101973.28
2022-10-05T08:54:37.106Z,101981.59
2022-10-05T08:57:29.723Z,101980.47
2022-10-05T09:00:07.138Z,101983.81
2022-10-05T09:02:59.312Z,101994.31
2022-10-05T09:05:39.078Z,101997.53
2022-10-05T09:08:31.105Z,102001.91
2022-10-05T09:11:24.289Z,101999.47
2022-10-05T09:14:39.085Z,101993.34
2022-10-05T09:17:10.555Z,102001.34
2022-10-05T09:19:49.407Z,101993.19
2022-10-05T09:22:30.387Z,101995.94
2022-10-05T09:25:24.615Z,102000.03
2022-10-05T09:28:03.076Z,102010.16
2022-10-05T09:30:58.283Z,102000.09
2022-10-05T09:34:12.104Z,101998.97
2022-10-05T09:37:09.081Z,102001.91
2022-10-05T09:39:51.771Z,101998.72
2022-10-05T09:42:47.017Z,102004.34
2022-10-05T09:45:41.450Z,102005.16
2022-10-05T09:48:47.332Z,102002.31
2022-10-05T09:51:40.334Z,102003.53
2022-10-05T09:54:36.782Z,101998.66
2022-10-05T09:57:35.938Z,102001.91
2022-10-05T10:00:19.105Z,101998.72
2022-10-05T10:03:35.278Z,101997.56
2022-10-05T10:06:40.892Z,101996.00
2022-10-05T10:09:38.681Z,102000.53
2022-10-05T10:12:37.357Z,101990.34
2022-10-05T10:15:26.977Z,101991.16
2022-10-05T10:18:03.383Z,101987.97
2022-10-05T10:20:33.652Z,101993.63
2022-10-05T10:23:18.884Z,101998.53
2022-10-05T10:26:04.926Z,101987.47
2022-10-05T10:28:55.344Z,101980.66
2022-10-05T10:31:51.040Z,101992.03
2022-10-05T10:34:57.494Z,101989.56
2022-10-05T10:37:52.955Z,101994.34
2022-10-05T10:40:48.255Z,102001.94
2022-10-05T10:43:37.030Z,101994.78
2022-10-05T10:46:21.281Z,101994.56
2022-10-05T10:49:16.978Z,101990.59
2022-10-05T10:52:27.395Z,101997.34
2022-10-05T10:55:26.106Z,101991.63
2022-10-05T10:58:16.210Z,101988.63
2022-10-05T11:01:31.036Z,101989.50
2022-10-05T11:04:23.176Z,101991.47
2022-10-05T11:07:12.034Z,101989.50
2022-10-05T11:10:01.187Z,101983.38
2022-10-05T11:12:50.308Z,101986.66
2022-10-05T11:16:00.735Z,101977.59
2022-10-05T11:18:50.033Z,101981.63
2022-10-05T11:21:40.784Z,101982.13
2022-10-05T11:24:38.897Z,101978.00
2022-10-05T11:27:34.256Z,101969.91
2022-10-05T11:30:26.807Z,101979.63
2022-10-05T11:33:34.431Z,101971.88
2022-10-05T11:36:18.772Z,101971.00
2022-10-05T11:39:23.446Z,101971.94
2022-10-05T11:42:28.444Z,101962.88
2022-10-05T11:45:36.203Z,101965.34
2022-10-05T11:48:35.571Z,101960.47
2022-10-05T11:51:27.898Z,101962.50
2022-10-05T11:54:02.250Z,101956.44
2022-10-05T11:57:00.847Z,101957.59
2022-10-05T11:59:49.219Z,101960.03
2022-10-05T12:02:43.701Z,101953.94
2022-10-05T12:05:56.249Z,101956.44
2022-10-05T12:08:44.331Z,101949.91
2022-10-05T12:11:39.041Z,101942.56
2022-10-05T12:14:50.067Z,101944.53
2022-10-05T12:17:28.252Z,101945.81
2022-10-05T12:20:15.665Z,101945.00
2022-10-05T12:22:49.818Z,101944.19
2022-10-05T12:25:30.155Z,101946.25
2022-10-05T12:28:05.073Z,101947.00
2022-10-05T12:30:51.344Z,101938.88
2022-10-05T12:33:38.356Z,101932.25
2022-10-05T12:36:21.180Z,101935.97
2022-10-05T12:39:31.420Z,101933.47
2022-10-05T12:42:07.890Z,101928.25
2022-10-05T12:45:15.088Z,101916.75
2022-10-05T12:48:12.478Z,101925.41
2022-10-05T12:50:53.660Z,101927.41
2022-10-05T12:54:02.336Z,101925.84
2022-10-05T12:56:42.792Z,101923.88
2022-10-05T12:59:34.233Z,101925.25
2022-10-05T13:02:33.026Z,101919.56
2022-10-05T13:05:24.940Z,101919.91
2022-10-05T13:08:05.458Z,101920.34
2022-10-05T13:10:45.600Z,101922.00
2022-10-05T13:13:37.995Z,101922.66
2022-10-05T13:16:23.647Z,101915.78
2022-10-05T13:19:25.846Z,101921.53
2022-10-05T13:22:25.374Z,101917.94
2022-10-05T13:25:17.997Z,101915.63
2022-10-05T13:28:31.470Z,101916.78
2022-10-05T13:31:20.994Z,101914.31
2022-10-05T13:34:05.784Z,101909.00
2022-10-05T13:36:54.675Z,101915.16
2022-10-05T13:40:03.182Z,101918.75
2022-10-05T13:42:38.814Z,101913.97
2022-10-05T13:45:22.607Z,101910.34
2022-10-05T13:48:08.312Z,101918.00
2022-10-05T13:51:07.729Z,101915.16
2022-10-05T13:53:59.273Z,101908.28
2022-10-05T13:56:33.646Z,101907.88
2022-10-05T13:59:31.256Z,101918.44
2022-10-05T14:02:17.253Z,101916.06
2022-10-05T14:04:54.022Z,101924.59
2022-10-05T14:07:39.378Z,101916.25
2022-10-05T14:10:36.601Z,101913.69
2022-10-05T14:13:34.924Z,101918.81
2022-10-05T14:16:26.397Z,101916.09
2022-10-05T14:19:01.791Z,101916.22
2022-10-05T14:21:57.565Z,101916.03
2022-10-05T14:24:47.707Z,101911.66
2022-10-05T14:27:26.298Z,101907.22
2022-10-05T14:30:04.278Z,101903.84
2022-10-05T14:32:44.586Z,101903.94
2022-10-05T14:35:22.668Z,101902.50
2022-10-05T14:37:58.973Z,101896.81
2022-10-05T14:40:35.783Z,101902.50
2022-10-05T14:43:18.735Z,101891.31
2022-10-05T14:46:01.009Z,101896.69
2022-10-05T14:48:41.129Z,101896.09
2022-10-05T14:51:32.177Z,101884.72
2022-10-05T14:54:15.011Z,101885.56
2022-10-05T14:56:48.798Z,101890.03
2022-10-05T15:00:04.200Z,101887.06
2022-10-05T15:02:53.481Z,101874.97
2022-10-05T15:05:59.398Z,101877.28
2022-10-05T15:08:55.117Z,101875.19
2022-10-05T15:12:00.208Z,101883.38
2022-10-05T15:14:43.407Z,101886.22
2022-10-05T15:17:27.666Z,101879.97
2022-10-05T15:20:22.222Z,101880.13
2022-10-05T15:23:24.923Z,101874.59
2022-10-05T15:26:41.612Z,101878.16
2022-10-05T15:29:15.221Z,101875.28
2022-10-05T15:32:03.895Z,101878.97
2022-10-05T15:34:50.206Z,101870.50
2022-10-05T15:37:33.263Z,101869.56
2022-10-05T15:40:17.656Z,101876.66
2022-10-05T15:42:59.612Z,101868.38
2022-10-05T15:45:36.619Z,101870.66
2022-10-05T15:48:29.303Z,101871.88
2022-10-05T15:51:15.578Z,101875.66
2022-10-05T15:54:11.918Z,101874.38
2022-10-05T15:56:53.735Z,101883.78
2022-10-05T15:59:46.758Z,101887.94
2022-10-05T16:02:29.648Z,101890.16
2022-10-05T16:05:04.928Z,101891.72
2022-10-05T16:08:02.249Z,101882.97
2022-10-05T16:10:36.592Z,101889.94
2022-10-05T16:13:20.217Z,101900.19
2022-10-05T16:16:15.772Z,101895.75
2022-10-05T16:18:58.472Z,101897.06
2022-10-05T16:21:48.586Z,101894.16
2022-10-05T16:24:35.662Z,101895.22
2022-10-05T16:27:32.176Z,101900.56
2022-10-05T16:30:16.748Z,101902.81
2022-10-05T16:32:52.535Z,101901.25
2022-10-05T16:35:47.969Z,101904.19
2022-10-05T16:38:29.798Z,101908.69
2022-10-05T16:41:16.762Z,101901.44
2022-10-05T16:44:04.746Z,101902.56
2022-10-05T16:46:43.635Z,101907.78
2022-10-05T16:49:43.765Z,101912.34
2022-10-05T16:52:20.440Z,101910.31
2022-10-05T16:54:57.558Z,101918.06
2022-10-05T16:57:27.911Z,101916.28
2022-10-05T17:00:10.834Z,101919.00
2022-10-05T17:03:17.454Z,101918.00
2022-10-05T17:06:09.979Z,101932.19
2022-10-05T17:08:56.301Z,101923.63
2022-10-05T17:11:50.781Z,101925.44
2022-10-05T17:14:39.796Z,101929.28
2022-10-05T17:17:49.011Z,101923.69
2022-10-05T17:20:28.450Z,101939.47
2022-10-05T17:23:21.487Z,101930.91
2022-10-05T17:26:33.446Z,101935.75
2022-10-05T17:29:47.700Z,101944.69
2022-10-05T17:32:20.286Z,101938.59
2022-10-05T17:35:18.504Z,101938.97
2022-10-05T17:38:20.268Z,101944.63
2022-10-05T17:41:04.815Z,101945.44
2022-10-05T17:43:42.987Z,101937.78
2022-10-05T17:46:10.965Z,101938.13
2022-10-05T17:49:02.444Z,101937.78
2022-10-05T17:51:48.804Z,101944.25
2022-10-05T17:55:16.849Z,101944.63
2022-10-05T17:57:49.426Z,101944.69
2022-10-05T18:00:34.936Z,101934.56
2022-10-05T18:03:43.586Z,101943.06
2022-10-05T18:06:26.497Z,101944.25
2022-10-05T18:09:23.061Z,101943.81
2022-10-05T18:12:12.314Z,101945.00
2022-10-05T18:15:03.097Z,101942.19
2022-10-05T18:17:51.543Z,101943.34
2022-10-05T18:20:37.385Z,101948.66
2022-10-05T18:23:09.901Z,101945.38
2022-10-05T18:25:45.890Z,101941.72
2022-10-05T18:28:35.258Z,101941.38
2022-10-05T18:31:27.366Z,101948.19
2022-10-05T18:34:18.196Z,101946.56
2022-10-05T18:37:31.726Z,101953.06
2022-10-05T18:40:13.227Z,101945.31
2022-10-05T18:43:06.498Z,101953.38
2022-10-05T18:45:49.016Z,101957.38
2022-10-05T18:49:03.272Z,101955.72
2022-10-05T18:52:00.480Z,101951.63
2022-10-05T18:55:04.012Z,101954.47
2022-10-05T18:57:53.410Z,101942.78
2022-10-05T19:00:26.923Z,101943.13
2022-10-05T19:03:05.369Z,101945.97
2022-10-05T19:05:53.770Z,101945.97
2022-10-05T19:08:39.143Z,101950.34
2022-10-05T19:11:28.573Z,101948.34
2022-10-05T19:14:23.020Z,101946.28
2022-10-05T19:17:45.195Z,101951.50
2022-10-05T19:20:22.505Z,101948.66
2022-10-05T19:23:09.441Z,101953.06
2022-10-05T19:25:48.756Z,101949.78
2022-10-05T19:28:32.579Z,101954.19
2022-10-05T19:31:12.198Z,101952.19
2022-10-05T19:34:03.646Z,101947.31
2022-10-05T19:36:40.827Z,101957.84
2022-10-05T19:39:36.169Z,101951.34
2022-10-05T19:42:38.983Z,101952.53
2022-10-05T19:45:26.485Z,101952.91
2022-10-05T19:48:30.456Z,101954.13
2022-10-05T19:51:05.568Z,101958.50
2022-10-05T19:53:45.791Z,101961.28
2022-10-05T19:56:41.603Z,101966.94
2022-10-05T19:59:21.432Z,101966.56
2022-10-05T20:01:57.792Z,101967.38
2022-10-05T20:04:48.803Z,101970.13
2022-10-05T20:07:21.771Z,101969.78
2022-10-05T20:10:17.025Z,101963.66
2022-10-05T20:12:56.527Z,101971.31
2022-10-05T20:15:50.346Z,101980.19
2022-10-05T20:18:55.669Z,101977.72
2022-10-05T20:21:47.150Z,101979.28
2022-10-05T20:24:21.898Z,101974.38
2022-10-05T20:27:06.656Z,101979.22
2022-10-05T20:29:44.198Z,101980.03
2022-10-05T20:32:18.073Z,101989.72
2022-10-05T20:34:55.541Z,101988.84
2022-10-05T20:37:27.263Z,101978.34
2022-10-05T20:40:00.601Z,101985.53
2022-10-05T20:42:31.038Z,101982.66
2022-10-05T20:45:04.825Z,101983.47
2022-10-05T20:47:46.560Z,101991.94
2022-10-05T20:50:16.245Z,101985.09
2022-10-05T20:52:49.582Z,101994.69
2022-10-05T20:55:20.798Z,101996.31
2022-10-05T20:57:53.656Z,102006.38
2022-10-05T21:00:23.916Z,101999.47
2022-10-05T21:03:07.668Z,102005.13
2022-10-05T21:05:41.486Z,102003.66
2022-10-05T21:08:09.178Z,101998.66
2022-10-05T21:10:44.733Z,101997.47
2022-10-05T21:13:18.427Z,101998.56
2022-10-05T21:15:51.682Z,101998.88
2022-10-05T21:18:25.425Z,102002.88
2022-10-05T21:20:59.879Z,101997.34
2022-10-05T21:23:35.177Z,101994.69
2022-10-05T21:26:07.940Z,101988.03
2022-10-05T21:28:40.197Z,101986.44
2022-10-05T21:31:09.267Z,101992.25
2022-10-05T21:33:39.872Z,101987.91
2022-10-05T21:36:15.765Z,101995.38
2022-10-05T21:38:46.628Z,101996.94
2022-10-05T21:41:15.050Z,101991.63
2022-10-05T21:43:48.113Z,101990.84
2022-10-05T21:46:20.271Z,101985.88
2022-10-05T21:48:54.355Z,101985.53
2022-10-05T21:51:27.159Z,101982.94
2022-10-05T21:54:09.406Z,101983.41
2022-10-05T21:56:43.773Z,101974.97
2022-10-05T21:59:16.754Z,101978.59
2022-10-05T22:01:52.382Z,101972.50
2022-10-05T22:04:23.503Z,101973.94
2022-10-05T22:06:59.612Z,101974.44
2022-10-05T22:09:30.588Z,101971.78
2022-10-05T22:12:01.153Z,101967.59
2022-10-05T22:14:32.805Z,101975.63
2022-10-05T22:17:04.012Z,101971.00
2022-10-05T22:19:33.581Z,101964.03
2022-10-05T22:22:13.673Z,101961.50
2022-10-05T22:24:41.248Z,101974.78
2022-10-05T22:27:11.646Z,101975.13
2022-10-05T22:29:42.610Z,101967.75
2022-10-05T22:32:15.696Z,101969.31
2022-10-05T22:34:43.442Z,101969.22
2022-10-05T22:37:13.109Z,101968.41
2022-10-05T22:39:48.211Z,101961.94
2022-10-05T22:42:15.909Z,101956.22
2022-10-05T22:44:49.046Z,101951.72
2022-10-05T22:47:27.549Z,101945.19
2022-10-05T22:49:58.077Z,101948.00
2022-10-05T22:52:31.481Z,101952.03
2022-10-05T22:55:03.495Z,101945.44
2022-10-05T22:57:41.397Z,101948.19
2022-10-05T23:00:14.834Z,101949.00
2022-10-05T23:02:50.232Z,101944.13
2022-10-05T23:05:18.650Z,101942.47
2022-10-05T23:07:48.755Z,101940.47
2022-10-05T23:10:20.170Z,101944.13
2022-10-05T23:13:00.701Z,101941.66
2022-10-05T23:15:31.317Z,101936.47
2022-10-05T23:18:04.719Z,101936.38
2022-10-05T23:20:35.676Z,101940.75
2022-10-05T23:23:08.631Z,101947.56
2022-10-05T23:25:39.026Z,101941.09
2022-10-05T23:28:15.004Z,101938.66
2022-10-05T23:30:45.597Z,101943.84
2022-10-05T23:33:20.880Z,101936.56
2022-10-05T23:36:12.466Z,101935.75
2022-10-05T23:38:42.474Z,101931.28
2022-10-05T23:41:15.993Z,101939.31
2022-10-05T23:43:45.960Z,101938.94
2022-10-05T23:46:16.347Z,101937.31
2022-10-05T23:48:50.439Z,101938.03
2022-10-05T23:51:23.635Z,101942.06
2022-10-05T23:53:53.764Z,101939.22
2022-10-05T23:56:21.919Z,101938.31
2022-10-05T23:58:49.923Z,101933.94
